Time;durP1;ratioP1;P1;durP2;ratioP2;P2;SDS_P1;SDS_P2;PMS_P1;PMS_P2;Temp;Humidity;BMP_temperature;BMP_pressure;BME280_temperature;BME280_humidity;BME280_pressure;Samples;Min_cycle;Max_cycle;Signal;HPM_P1;HPM_P2
2021/07/08 00:01:34;;;;;;;8.75;6.60;;;;;;;27.32;63.54;101774.12;1762393;80;20962;-46
2021/07/08 00:04:01;;;;;;;7.08;6.37;;;;;;;27.31;63.24;101777.27;1768835;80;20978;-47
2021/07/08 00:06:28;;;;;;;9.83;6.22;;;;;;;27.31;63.24;101777.27;1753379;80;20974;-47
2021/07/08 00:08:54;;;;;;;11.12;7.08;;;;;;;27.30;63.16;101779.59;1748004;81;21462;-45
2021/07/08 00:11:21;;;;;;;8.00;6.92;;;;;;;27.28;63.25;101780.67;1752735;80;21000;-46
2021/07/08 00:13:48;;;;;;;11.10;6.80;;;;;;;27.25;63.18;101778.21;1755522;80;21518;-47
2021/07/08 00:16:15;;;;;;;10.90;6.90;;;;;;;27.24;63.16;101782.70;1759577;80;20979;-51
2021/07/08 00:18:43;;;;;;;6.78;6.17;;;;;;;27.24;63.08;101780.02;1762607;80;20975;-47
2021/07/08 00:21:10;;;;;;;9.33;6.53;;;;;;;27.22;63.13;101784.62;1762708;80;20938;-47
2021/07/08 00:23:36;;;;;;;7.72;6.83;;;;;;;27.19;63.10;101783.55;1759031;80;20939;-50
2021/07/08 00:26:03;;;;;;;9.45;7.20;;;;;;;27.19;63.10;101783.55;1704424;82;21868;-46
2021/07/08 00:28:31;;;;;;;9.00;6.90;;;;;;;27.18;63.18;101777.81;1709077;83;20940;-46
2021/07/08 00:30:59;;;;;;;7.60;6.87;;;;;;;27.17;63.23;101783.28;1695643;83;21022;-49
2021/07/08 00:33:26;;;;;;;7.55;6.78;;;;;;;27.15;63.24;101786.08;1698441;84;21495;-48
2021/07/08 00:35:52;;;;;;;8.05;7.08;;;;;;;27.09;63.42;101779.86;1691840;83;21002;-47
2021/07/08 00:38:19;;;;;;;9.60;7.58;;;;;;;27.07;63.51;101780.45;1693667;83;20982;-46
2021/07/08 00:40:46;;;;;;;8.88;7.00;;;;;;;27.05;63.52;101779.72;1773482;80;21506;-46
2021/07/08 00:43:13;;;;;;;7.58;6.85;;;;;;;27.04;63.49;101785.15;1770997;80;20942;-47
2021/07/08 00:45:40;;;;;;;9.85;7.17;;;;;;;27.03;63.53;101789.66;1752387;80;20965;-47
2021/07/08 00:48:07;;;;;;;13.40;8.25;;;;;;;27.04;63.54;101799.37;1742176;81;21471;-47
2021/07/08 00:50:42;;;;;;;10.10;8.58;;;;;;;27.02;63.54;101794.62;1756080;80;20987;-48
2021/07/08 00:53:10;;;;;;;9.23;7.28;;;;;;;27.03;63.59;101801.69;1767243;80;21018;-45
2021/07/08 00:55:37;;;;;;;9.53;7.45;;;;;;;27.02;63.61;101805.78;1752917;80;21046;-47
2021/07/08 00:58:05;;;;;;;8.20;7.37;;;;;;;27.02;63.57;101810.65;1759077;80;20985;-50
2021/07/08 01:00:33;;;;;;;8.53;7.58;;;;;;;27.01;63.60;101808.96;1750960;80;20970;-46
2021/07/08 01:02:59;;;;;;;8.70;7.90;;;;;;;27.00;63.59;101808.58;1755726;80;21018;-46
2021/07/08 01:05:32;;;;;;;10.65;8.23;;;;;;;27.00;63.59;101808.58;1753895;81;20962;-51
2021/07/08 01:07:59;;;;;;;8.55;7.85;;;;;;;27.00;63.61;101811.25;1761773;80;21096;-45
2021/07/08 01:10:26;;;;;;;9.50;8.60;;;;;;;27.00;63.56;101811.25;1755753;80;21049;-47
2021/07/08 01:12:54;;;;;;;9.00;7.62;;;;;;;27.00;63.56;101811.25;1746510;80;20959;-46
2021/07/08 01:15:21;;;;;;;8.95;8.13;;;;;;;26.99;63.60;101805.55;1765026;80;20975;-46
2021/07/08 01:17:48;;;;;;;9.05;8.13;;;;;;;26.99;63.67;101801.55;1760449;80;21013;-45
2021/07/08 01:20:17;;;;;;;9.38;8.45;;;;;;;27.00;63.53;101802.38;1763275;80;20971;-49
2021/07/08 01:22:44;;;;;;;8.83;8.03;;;;;;;26.98;63.58;101799.83;1764928;80;20979;-47
2021/07/08 01:25:14;;;;;;;9.03;8.10;;;;;;;26.96;63.49;101804.42;1754072;80;20951;-46
2021/07/08 01:27:41;;;;;;;10.55;8.45;;;;;;;26.95;63.53;101803.21;1755366;80;20951;-45
2021/07/08 01:30:10;;;;;;;9.10;8.30;;;;;;;26.95;63.54;101800.06;1751585;81;20938;-47
2021/07/08 01:32:37;;;;;;;8.95;8.05;;;;;;;26.90;63.45;101802.20;1758463;80;21009;-46
2021/07/08 01:35:06;;;;;;;9.28;8.20;;;;;;;26.90;63.45;101802.20;1758059;80;20991;-46
2021/07/08 01:37:33;;;;;;;10.53;8.23;;;;;;;26.89;63.48;101802.33;1757313;81;21011;-47
2021/07/08 01:40:03;;;;;;;9.80;7.50;;;;;;;26.86;63.38;101807.88;1756147;80;20962;-50
2021/07/08 01:42:29;;;;;;;9.70;8.10;;;;;;;26.84;63.37;101801.80;1766426;80;21056;-51
2021/07/08 01:44:56;;;;;;;10.05;8.80;;;;;;;26.83;63.47;101808.95;1765959;80;21048;-46
2021/07/08 01:47:23;;;;;;;12.82;8.90;;;;;;;26.83;63.49;101812.95;1759607;80;21510;-52
2021/07/08 01:49:51;;;;;;;9.65;8.63;;;;;;;26.83;63.50;101816.96;1756000;81;20955;-47
2021/07/08 01:52:17;;;;;;;8.75;7.85;;;;;;;26.84;63.50;101814.67;1759877;80;21454;-45
2021/07/08 01:54:44;;;;;;;8.65;7.80;;;;;;;26.83;63.50;101816.96;1750573;80;20950;-46
2021/07/08 01:57:11;;;;;;;8.88;8.03;;;;;;;26.82;63.59;101820.61;1763343;80;20997;-48
2021/07/08 01:59:37;;;;;;;11.15;7.67;;;;;;;26.83;63.46;101825.48;1769582;80;21007;-46
2021/07/08 02:02:04;;;;;;;10.08;8.20;;;;;;;26.83;63.46;101825.48;1771841;80;21006;-46
2021/07/08 02:04:31;;;;;;;9.48;7.85;;;;;;;26.82;63.41;101823.28;1756141;80;21089;-47
2021/07/08 02:06:57;;;;;;;9.15;7.55;;;;;;;26.81;63.37;101820.23;1749048;80;21017;-46
2021/07/08 02:09:24;;;;;;;9.30;8.38;;;;;;;26.83;63.06;101816.96;1757246;80;20976;-49
2021/07/08 02:11:50;;;;;;;9.80;7.55;;;;;;;26.83;63.06;101816.96;1756933;80;21505;-46
2021/07/08 02:14:18;;;;;;;8.85;8.00;;;;;;;26.79;63.25;101814.14;1755222;80;21599;-46
2021/07/08 02:16:45;;;;;;;8.20;7.30;;;;;;;26.80;63.28;101815.87;1743240;81;20959;-47
2021/07/08 02:19:12;;;;;;;8.65;7.75;;;;;;;26.82;63.25;101819.75;1755657;80;20995;-46
2021/07/08 02:21:38;;;;;;;8.43;7.67;;;;;;;26.81;63.25;101820.23;1759555;80;21556;-48
2021/07/08 02:24:05;;;;;;;11.22;6.92;;;;;;;26.81;63.21;101829.58;1758539;80;20962;-50
2021/07/08 02:26:32;;;;;;;8.25;7.40;;;;;;;26.80;63.20;101823.87;1770759;80;21519;-46
2021/07/08 02:28:58;;;;;;;8.28;7.55;;;;;;;26.82;63.10;101833.11;1771708;80;20974;-48
2021/07/08 02:31:25;;;;;;;11.33;7.17;;;;;;;26.80;63.03;101825.22;1777174;80;20959;-45
2021/07/08 02:33:51;;;;;;;7.53;6.83;;;;;;;26.78;63.00;101827.14;1753013;80;20974;-47
2021/07/08 02:36:18;;;;;;;14.80;7.97;;;;;;;26.78;63.13;101831.62;1751709;81;21426;-45
2021/07/08 02:38:44;;;;;;;8.95;7.50;;;;;;;26.77;63.12;101830.77;1757296;81;20994;-48
2021/07/08 02:41:11;;;;;;;10.65;7.53;;;;;;;26.79;63.21;101842.19;1762467;80;21544;-46
2021/07/08 02:43:38;;;;;;;9.58;7.33;;;;;;;26.80;63.06;101838.56;1752742;80;20990;-51
2021/07/08 02:46:04;;;;;;;8.38;7.47;;;;;;;26.81;62.98;101842.09;1751483;80;21049;-47
2021/07/08 02:48:31;;;;;;;10.82;8.45;;;;;;;26.79;63.01;101846.19;1760303;80;20995;-47
2021/07/08 02:50:58;;;;;;;8.75;7.50;;;;;;;26.79;62.90;101845.36;1756674;80;21538;-46
2021/07/08 02:53:24;;;;;;;8.58;7.33;;;;;;;26.76;62.97;101847.77;1755172;80;20962;-49
2021/07/08 02:55:51;;;;;;;8.90;7.65;;;;;;;26.74;63.00;101848.36;1752330;80;21025;-46
2021/07/08 02:58:18;;;;;;;7.87;7.17;;;;;;;26.74;62.94;101843.48;1768947;80;21482;-46
2021/07/08 03:00:46;;;;;;;9.38;7.20;;;;;;;26.72;63.09;101848.95;1763340;80;20958;-45
2021/07/08 03:03:12;;;;;;;8.93;7.20;;;;;;;26.72;63.22;101851.63;1756278;80;21011;-46
2021/07/08 03:05:39;;;;;;;9.18;7.37;;;;;;;26.75;63.25;101851.38;1753511;81;20995;-46
2021/07/08 03:08:06;;;;;;;8.50;7.67;;;;;;;26.77;63.38;101850.79;1752761;80;21026;-49
2021/07/08 03:10:33;;;;;;;8.55;7.10;;;;;;;26.79;63.42;101852.03;1772441;80;20991;-47
2021/07/08 03:12:59;;;;;;;8.73;7.83;;;;;;;26.79;63.44;101858.20;1760298;80;21022;-46
2021/07/08 03:15:26;;;;;;;9.80;7.90;;;;;;;26.79;63.48;101856.87;1761148;80;21419;-50
2021/07/08 03:17:57;;;;;;;9.15;7.70;;;;;;;26.80;63.50;101857.73;1769174;80;20966;-46
2021/07/08 03:20:26;;;;;;;8.65;7.67;;;;;;;26.81;63.45;101869.62;1728284;82;20995;-48
2021/07/08 03:22:52;;;;;;;10.93;7.87;;;;;;;26.83;63.47;101874.37;1724703;82;21050;-50
2021/07/08 03:25:20;;;;;;;9.80;7.45;;;;;;;26.85;63.50;101872.48;1730566;82;21050;-50
2021/07/08 03:27:46;;;;;;;10.38;7.30;;;;;;;26.86;63.36;101879.52;1720154;82;20978;-46
2021/07/08 03:30:16;;;;;;;9.15;7.37;;;;;;;26.88;63.28;101885.59;1697192;83;21486;-46
2021/07/08 03:32:43;;;;;;;10.93;7.78;;;;;;;26.90;63.19;101886.81;1752802;80;21474;-45
2021/07/08 03:35:10;;;;;;;10.03;7.58;;;;;;;26.95;63.03;101884.69;1759671;80;20972;-47
2021/07/08 03:37:37;;;;;;;9.10;8.23;;;;;;;26.95;63.03;101884.69;1769048;80;21105;-46
2021/07/08 03:40:05;;;;;;;10.30;8.05;;;;;;;27.01;62.88;101886.44;1760236;80;21030;-49
2021/07/08 03:42:31;;;;;;;11.12;8.53;;;;;;;27.01;62.88;101886.44;1761241;80;21026;-46
2021/07/08 03:44:58;;;;;;;12.18;7.90;;;;;;;27.01;62.32;101887.77;1762306;80;21007;-46
2021/07/08 03:47:24;;;;;;;9.95;8.05;;;;;;;27.10;62.16;101896.94;1762669;80;21010;-48
2021/07/08 03:49:51;;;;;;;9.95;7.95;;;;;;;27.31;62.09;101898.88;1758579;80;21046;-47
2021/07/08 03:52:17;;;;;;;8.50;7.67;;;;;;;27.66;61.42;101898.09;1766414;80;21002;-46
2021/07/08 03:54:46;;;;;;;8.65;7.85;;;;;;;28.11;60.31;101897.30;1759707;80;21002;-47
2021/07/08 03:57:12;;;;;;;10.23;7.97;;;;;;;28.59;59.06;101900.69;1761035;80;21026;-47
2021/07/08 03:59:39;;;;;;;10.78;8.23;;;;;;;29.05;57.78;101892.51;1757082;81;21510;-47
2021/07/08 04:02:06;;;;;;;11.95;7.83;;;;;;;29.57;56.39;101895.33;1770647;80;21038;-47
2021/07/08 04:04:38;;;;;;;7.62;6.85;;;;;;;30.10;55.24;101899.73;1757546;81;21006;-47
2021/07/08 04:07:02;;;;;;;8.53;7.67;;;;;;;30.65;53.74;101894.95;1750514;80;21034;-48
2021/07/08 04:09:29;;;;;;;9.00;6.85;;;;;;;31.04;52.27;101899.50;1751038;80;21021;-47
2021/07/08 04:11:55;;;;;;;10.10;7.22;;;;;;;31.16;51.60;101901.12;1757265;80;21021;-47
2021/07/08 04:14:22;;;;;;;10.40;8.30;;;;;;;31.09;51.37;101909.36;1748522;80;21414;-47
2021/07/08 04:16:50;;;;;;;13.95;7.05;;;;;;;30.90;51.54;101913.33;1762667;80;20973;-46
2021/07/08 04:19:17;;;;;;;13.62;8.95;;;;;;;30.70;51.86;101911.53;1767006;80;20958;-46
2021/07/08 04:21:43;;;;;;;10.13;8.43;;;;;;;30.40;52.16;101907.84;1759150;80;21022;-47
2021/07/08 04:24:10;;;;;;;9.98;8.43;;;;;;;30.14;52.77;101906.53;1756892;81;20963;-47
2021/07/08 04:26:37;;;;;;;9.13;7.83;;;;;;;29.91;53.36;101904.95;1758495;80;21498;-47
2021/07/08 04:29:04;;;;;;;9.18;8.25;;;;;;;29.71;53.89;101904.41;1758787;80;21096;-46
2021/07/08 04:31:31;;;;;;;12.20;8.08;;;;;;;29.54;54.47;101908.50;1754752;80;21010;-45
2021/07/08 04:33:59;;;;;;;9.25;8.40;;;;;;;29.39;54.68;101907.56;1753097;80;21493;-47
2021/07/08 04:36:25;;;;;;;9.63;8.03;;;;;;;29.22;55.11;101908.11;1761872;81;20967;-46
2021/07/08 04:38:53;;;;;;;12.05;8.98;;;;;;;29.08;55.61;101906.50;1758692;80;21014;-45
2021/07/08 04:41:21;;;;;;;11.28;8.98;;;;;;;28.96;55.97;101911.04;1761777;81;21510;-47
2021/07/08 04:43:47;;;;;;;10.93;8.65;;;;;;;28.85;56.21;101913.72;1753896;80;21104;-46
2021/07/08 04:46:14;;;;;;;10.23;9.30;;;;;;;28.73;56.54;101909.34;1752613;81;20947;-50
2021/07/08 04:48:43;;;;;;;11.22;10.15;;;;;;;28.65;56.96;101923.83;1760947;80;21484;-47
2021/07/08 04:51:11;;;;;;;9.55;8.65;;;;;;;28.58;57.14;101915.94;1762413;80;21015;-47
2021/07/08 04:53:38;;;;;;;12.82;9.55;;;;;;;28.51;57.36;101926.72;1766766;80;20979;-47
2021/07/08 04:56:05;;;;;;;10.28;9.18;;;;;;;28.47;57.64;101926.59;1747753;81;20993;-51
2021/07/08 04:58:32;;;;;;;10.40;9.13;;;;;;;28.46;57.74;101926.20;1758450;80;21034;-46
2021/07/08 05:00:59;;;;;;;10.82;9.10;;;;;;;28.45;57.80;101933.03;1767286;80;21006;-46
2021/07/08 05:03:25;;;;;;;10.38;9.38;;;;;;;28.43;57.91;101937.66;1747696;80;21034;-47
2021/07/08 05:05:52;;;;;;;10.88;9.60;;;;;;;28.42;57.98;101938.13;1751004;80;20969;-47
2021/07/08 05:08:20;;;;;;;10.68;9.58;;;;;;;28.39;58.04;101941.06;1756705;81;21438;-46
2021/07/08 05:10:46;;;;;;;10.70;9.60;;;;;;;28.39;58.28;101950.44;1747831;80;21026;-46
2021/07/08 05:13:15;;;;;;;11.28;9.25;;;;;;;28.42;58.16;101944.83;1753545;81;21022;-47
2021/07/08 05:15:42;;;;;;;12.13;9.40;;;;;;;28.45;58.03;101955.79;1752044;80;20974;-48
2021/07/08 05:18:08;;;;;;;10.35;9.25;;;;;;;28.51;58.01;101956.17;1758358;80;20988;-46
2021/07/08 05:20:38;;;;;;;10.72;9.63;;;;;;;28.60;57.80;101961.34;1755220;81;20944;-46
2021/07/08 05:23:12;;;;;;;10.32;9.15;;;;;;;28.72;57.81;101966.58;1765723;80;21011;-46
2021/07/08 05:25:34;;;;;;;11.43;8.48;;;;;;;28.89;57.56;101962.06;1750957;80;20986;-46
2021/07/08 05:28:00;;;;;;;10.25;8.95;;;;;;;29.03;57.08;101960.13;1768418;80;20974;-47
2021/07/08 05:30:29;;;;;;;10.78;8.93;;;;;;;29.12;56.60;101964.25;1760795;80;20974;-47
2021/07/08 05:32:57;;;;;;;10.50;9.33;;;;;;;29.19;56.32;101973.55;1752750;80;21498;-52
2021/07/08 05:35:24;;;;;;;10.80;9.43;;;;;;;29.25;56.10;101974.87;1756724;80;21038;-48
2021/07/08 05:37:50;;;;;;;10.53;9.25;;;;;;;29.29;55.86;101976.33;1772383;80;21576;-47
2021/07/08 05:40:19;;;;;;;9.75;8.75;;;;;;;29.33;55.76;101972.41;1757766;80;20987;-49
2021/07/08 05:42:45;;;;;;;11.12;9.05;;;;;;;29.37;55.86;101975.21;1767140;80;21510;-49
2021/07/08 05:45:12;;;;;;;10.23;9.08;;;;;;;29.43;55.66;101968.86;1755850;80;21003;-49
2021/07/08 05:47:39;;;;;;;11.80;9.55;;;;;;;29.49;55.72;101972.90;1761595;80;20994;-47
2021/07/08 05:50:08;;;;;;;16.10;9.05;;;;;;;29.57;55.51;101973.12;1772663;80;21419;-53
2021/07/08 05:52:35;;;;;;;12.43;9.53;;;;;;;29.65;55.10;101978.70;1750236;81;21020;-47
2021/07/08 05:55:02;;;;;;;14.65;10.80;;;;;;;29.72;54.79;101979.88;1764983;80;21034;-48
2021/07/08 05:57:29;;;;;;;10.65;9.73;;;;;;;29.76;54.49;101978.68;1758299;81;20998;-47
2021/07/08 05:59:56;;;;;;;11.30;10.10;;;;;;;29.78;54.50;101984.77;1759584;80;21474;-47
2021/07/08 06:02:23;;;;;;;10.70;9.43;;;;;;;29.85;54.41;101984.63;1762880;80;20962;-50
2021/07/08 06:04:49;;;;;;;9.63;8.78;;;;;;;29.95;54.14;101984.70;1751882;80;21529;-48
2021/07/08 06:07:16;;;;;;;10.38;9.35;;;;;;;30.01;53.96;101981.02;1753794;80;21045;-51
2021/07/08 06:09:42;;;;;;;10.63;9.30;;;;;;;30.08;53.72;101987.59;1754850;80;20948;-50
2021/07/08 06:12:09;;;;;;;10.80;9.45;;;;;;;30.15;53.56;101986.59;1769938;80;21018;-48
2021/07/08 06:14:36;;;;;;;14.93;10.10;;;;;;;30.21;53.43;101988.24;1758204;80;21018;-48
2021/07/08 06:17:06;;;;;;;10.00;9.00;;;;;;;30.29;53.30;101991.19;1767973;80;21006;-50
2021/07/08 06:19:32;;;;;;;12.33;9.40;;;;;;;30.36;53.12;101997.72;1750738;81;21459;-51
2021/07/08 06:22:00;;;;;;;13.72;8.73;;;;;;;30.47;52.87;101994.98;1763519;80;20966;-47
2021/07/08 06:24:27;;;;;;;14.93;9.08;;;;;;;30.61;53.13;101998.30;1764724;80;20995;-49
2021/07/08 06:26:54;;;;;;;12.73;8.70;;;;;;;30.78;52.69;102003.07;1768659;80;20982;-46
2021/07/08 06:29:20;;;;;;;12.47;9.33;;;;;;;30.86;51.65;102004.14;1761709;80;21015;-48
2021/07/08 06:31:47;;;;;;;14.40;9.88;;;;;;;30.86;51.52;102005.97;1751172;80;20974;-47
2021/07/08 06:34:13;;;;;;;12.40;9.93;;;;;;;30.80;51.68;102005.12;1752051;80;20971;-46
2021/07/08 06:36:40;;;;;;;11.08;10.05;;;;;;;30.73;51.80;102006.67;1750573;80;21487;-49
2021/07/08 06:39:07;;;;;;;13.88;10.15;;;;;;;30.61;51.75;101998.30;1754489;80;20969;-51
2021/07/08 06:41:36;;;;;;;13.05;9.68;;;;;;;30.49;52.02;102002.41;1757829;80;20981;-49
2021/07/08 06:44:04;;;;;;;13.40;9.93;;;;;;;30.37;52.07;102012.02;1759888;80;20982;-48
2021/07/08 06:46:31;;;;;;;13.08;9.35;;;;;;;30.25;52.54;102008.48;1749439;81;20983;-48
2021/07/08 06:48:58;;;;;;;13.32;9.48;;;;;;;30.16;52.92;102005.25;1755802;80;21019;-48
2021/07/08 06:51:26;;;;;;;10.95;9.70;;;;;;;30.09;53.07;102004.05;1745391;80;20995;-52
2021/07/08 06:53:54;;;;;;;17.05;9.83;;;;;;;30.04;53.68;102011.66;1756166;80;20991;-50
2021/07/08 06:56:22;;;;;;;10.70;9.63;;;;;;;30.02;53.78;102011.41;1752627;80;20937;-47
2021/07/08 06:58:48;;;;;;;11.50;10.05;;;;;;;30.01;53.73;102017.74;1756190;80;21474;-48
2021/07/08 07:01:16;;;;;;;11.75;10.58;;;;;;;29.99;53.95;102014.33;1772626;80;20970;-52
2021/07/08 07:03:43;;;;;;;11.88;10.35;;;;;;;29.98;54.00;102013.98;1754619;81;21014;-50
2021/07/08 07:06:10;;;;;;;12.05;9.78;;;;;;;29.96;53.75;102010.09;1755329;81;21462;-47
2021/07/08 07:08:51;;;;;;;12.00;8.68;;;;;;;29.96;54.08;102015.47;1765413;80;21143;-47
2021/07/08 07:14:12;;;;;;;10.85;8.70;;;;;;;30.03;53.79;102015.78;1801182;79;26482;-50
2021/07/08 07:16:40;;;;;;;15.10;8.95;;;;;;;30.04;53.80;102008.97;1760910;80;21138;-51
2021/07/08 07:19:07;;;;;;;15.60;9.90;;;;;;;30.11;53.43;102012.00;1744840;80;21594;-50
2021/07/08 07:21:34;;;;;;;9.70;8.65;;;;;;;30.16;53.01;102020.02;1754103;80;21047;-49
2021/07/08 07:24:03;;;;;;;14.63;9.38;;;;;;;30.17;52.80;102029.75;1752119;80;21549;-48
2021/07/08 07:26:30;;;;;;;12.65;8.53;;;;;;;30.21;52.30;102025.83;1766592;80;21056;-49
2021/07/08 07:28:58;;;;;;;11.38;8.80;;;;;;;30.26;51.93;102034.36;1711925;82;21027;-49
2021/07/08 07:31:24;;;;;;;17.50;9.90;;;;;;;30.28;51.99;102032.41;1747771;80;21537;-49
2021/07/08 07:33:51;;;;;;;11.85;9.55;;;;;;;30.30;52.58;102027.78;1750947;80;21027;-50
2021/07/08 07:36:18;;;;;;;9.78;8.83;;;;;;;30.32;52.41;102033.87;1755251;80;21079;-49
2021/07/08 07:38:45;;;;;;;9.98;8.98;;;;;;;30.31;52.47;102042.94;1747470;80;20956;-50
2021/07/08 07:41:11;;;;;;;33.73;11.12;;;;;;;30.33;52.67;102045.48;1755420;80;20999;-49
2021/07/08 07:43:40;;;;;;;11.20;10.05;;;;;;;30.32;52.64;102039.25;1755686;80;21065;-50
2021/07/08 07:46:07;;;;;;;13.25;9.23;;;;;;;30.34;52.60;102049.38;1749526;80;21565;-50
2021/07/08 07:48:37;;;;;;;11.90;8.93;;;;;;;30.35;52.56;102043.03;1759731;80;21065;-49
2021/07/08 07:51:03;;;;;;;9.98;8.75;;;;;;;30.35;52.47;102047.06;1765347;80;21502;-50
2021/07/08 07:53:30;;;;;;;12.07;8.98;;;;;;;30.35;52.38;102056.46;1745405;80;21006;-49
2021/07/08 07:55:58;;;;;;;12.37;9.18;;;;;;;30.33;51.91;102049.02;1747489;81;21063;-51
2021/07/08 07:58:27;;;;;;;13.53;9.98;;;;;;;30.30;52.11;102047.92;1750731;80;21140;-50
2021/07/08 08:03:22;;;;;;;11.38;8.33;;;;;;;30.29;52.57;102047.58;1703690;83;20992;-50
2021/07/08 08:05:57;;;;;;;12.63;8.13;;;;;;;30.31;52.50;102049.64;1683424;83;21196;-50
2021/07/08 08:08:27;;;;;;;11.35;10.25;;;;;;;30.33;52.41;102045.00;1702189;83;21092;-50
2021/07/08 08:10:57;;;;;;;12.40;8.38;;;;;;;30.36;52.25;102051.92;1695727;82;21010;-49
2021/07/08 08:13:24;;;;;;;8.03;6.35;;;;;;;30.39;51.80;102053.87;1712031;82;21061;-49
2021/07/08 08:15:52;;;;;;;9.03;6.47;;;;;;;30.42;51.29;102050.91;1685839;83;21592;-49
2021/07/08 08:18:20;;;;;;;8.30;6.62;;;;;;;30.42;50.36;102049.57;1695009;83;21078;-50
2021/07/08 08:20:47;;;;;;;9.30;6.22;;;;;;;30.41;50.10;102049.23;1697805;83;21030;-49
2021/07/08 08:23:14;;;;;;;7.03;6.33;;;;;;;30.42;50.16;102050.05;1703055;82;21022;-49
2021/07/08 08:25:40;;;;;;;9.13;6.40;;;;;;;30.43;50.04;102051.29;1711581;83;21164;-49
2021/07/08 08:28:07;;;;;;;8.50;5.97;;;;;;;30.45;50.32;102050.67;1707393;83;20974;-49
2021/07/08 08:30:36;;;;;;;9.03;7.00;;;;;;;30.48;50.01;102047.70;1708307;83;21046;-51
2021/07/08 08:33:04;;;;;;;6.72;5.58;;;;;;;30.52;49.82;102053.69;1696881;83;21116;-48
2021/07/08 08:35:31;;;;;;;10.95;6.78;;;;;;;30.57;49.81;102053.27;1699692;83;21050;-50
2021/07/08 08:37:58;;;;;;;8.78;6.12;;;;;;;30.59;49.43;102048.14;1703392;83;21028;-49
2021/07/08 08:40:25;;;;;;;8.48;6.53;;;;;;;30.65;49.58;102050.78;1705768;82;21081;-49
2021/07/08 08:42:53;;;;;;;14.07;6.62;;;;;;;30.69;49.23;102050.87;1694791;82;21164;-49
2021/07/08 08:45:20;;;;;;;11.33;6.17;;;;;;;30.71;49.39;102049.77;1653032;85;21065;-50
2021/07/08 08:48:04;;;;;;;9.95;6.87;;;;;;;30.74;49.13;102055.38;1713277;83;21026;-50
2021/07/08 08:50:35;;;;;;;7.33;6.45;;;;;;;30.78;48.85;102058.16;1671613;84;21593;-49
2021/07/08 08:53:04;;;;;;;8.43;5.85;;;;;;;30.83;48.87;102062.66;1667159;85;21386;-49
2021/07/08 08:55:34;;;;;;;6.35;5.75;;;;;;;30.87;48.56;102059.58;1677966;84;21038;-49
2021/07/08 08:58:03;;;;;;;9.03;6.40;;;;;;;30.91;47.76;102062.88;1675414;84;21034;-50
2021/07/08 09:00:41;;;;;;;6.95;5.78;;;;;;;30.92;47.76;102064.57;1606499;88;21617;-50
2021/07/08 09:03:12;;;;;;;7.72;7.03;;;;;;;30.94;47.94;102063.94;1586655;88;21065;-50
2021/07/08 09:05:42;;;;;;;9.55;7.75;;;;;;;30.94;48.37;102062.59;1603634;88;21072;-49
2021/07/08 09:08:21;;;;;;;8.13;6.22;;;;;;;30.98;48.04;102069.41;1587049;88;21090;-50
2021/07/08 09:11:10;;;;;;;8.38;6.37;;;;;;;30.98;47.69;102070.75;1603330;87;21081;-50
2021/07/08 09:13:52;;;;;;;11.90;6.37;;;;;;;31.00;47.79;102072.81;1532319;92;21141;-49
2021/07/08 09:16:41;;;;;;;8.27;7.37;;;;;;;31.01;47.70;102073.19;1530942;92;21117;-49
2021/07/08 09:19:10;;;;;;;11.08;6.33;;;;;;;31.01;48.22;102074.05;1491084;94;21099;-50
2021/07/08 09:21:46;;;;;;;9.00;6.55;;;;;;;31.05;48.26;102073.28;1490885;94;21086;-49
2021/07/08 09:24:23;;;;;;;8.65;6.12;;;;;;;31.06;47.95;102079.00;1443271;98;21612;-51
2021/07/08 09:26:56;;;;;;;6.72;6.08;;;;;;;31.07;47.73;102072.17;1432440;97;21093;-50
2021/07/08 09:29:26;;;;;;;7.00;5.42;;;;;;;31.11;47.74;102070.05;1460659;97;21200;-49
2021/07/08 09:32:03;;;;;;;6.95;6.35;;;;;;;31.11;47.35;102072.75;1417654;100;21711;-50
2021/07/08 09:34:34;;;;;;;6.62;5.25;;;;;;;31.14;47.82;102072.49;1432065;98;21672;-50
2021/07/08 09:37:15;;;;;;;6.20;5.37;;;;;;;31.16;47.59;102069.17;1396243;101;21625;-50
2021/07/08 09:39:46;;;;;;;6.17;4.78;;;;;;;31.21;47.66;102070.47;1412449;99;21228;-49
2021/07/08 09:42:16;;;;;;;6.58;5.60;;;;;;;31.24;45.82;102062.62;1418563;99;21182;-48
2021/07/08 09:44:43;;;;;;;6.17;4.67;;;;;;;31.28;46.03;102066.23;1367788;103;21250;-49
2021/07/08 09:47:27;;;;;;;8.83;5.35;;;;;;;31.32;46.22;102069.01;1384340;102;21134;-50
2021/07/08 09:49:54;;;;;;;7.62;4.65;;;;;;;31.35;45.69;102069.23;1384337;102;21609;-48
2021/07/08 09:52:22;;;;;;;9.53;5.85;;;;;;;31.41;45.48;102068.72;1385731;102;21649;-49
2021/07/08 09:57:47;;;;;;;7.53;5.40;;;;;;;31.48;45.72;102066.34;1296315;107;21660;-48
2021/07/08 10:00:25;;;;;;;8.88;5.55;;;;;;;31.51;46.09;102060.19;1293840;109;21194;-49
2021/07/08 10:02:53;;;;;;;6.50;5.75;;;;;;;31.55;45.79;102064.30;1268053;111;21204;-49
2021/07/08 10:05:21;;;;;;;6.40;5.28;;;;;;;31.58;44.89;102064.05;1264006;110;21346;-49
2021/07/08 10:07:50;;;;;;;8.13;5.55;;;;;;;31.61;44.68;102055.72;1274237;110;21156;-49
2021/07/08 10:10:19;;;;;;;7.30;5.35;;;;;;;31.66;44.92;102053.44;1284592;108;21742;-49
2021/07/08 10:12:46;;;;;;;8.08;5.87;;;;;;;31.67;45.15;102055.16;1298806;105;21292;-50
2021/07/08 10:15:15;;;;;;;7.78;5.75;;;;;;;31.69;45.54;102053.18;1353650;104;21117;-53
2021/07/08 10:17:44;;;;;;;7.03;6.05;;;;;;;31.73;45.21;102048.36;1344632;105;21183;-49
2021/07/08 10:20:14;;;;;;;7.30;5.97;;;;;;;31.74;45.47;102058.13;1359646;101;21152;-49
2021/07/08 10:22:40;;;;;;;11.48;5.95;;;;;;;31.76;45.67;102054.31;1399984;101;21203;-50
2021/07/08 10:25:10;;;;;;;7.65;6.33;;;;;;;31.79;46.00;102056.73;1398199;101;21183;-51
2021/07/08 10:27:38;;;;;;;11.25;6.35;;;;;;;31.82;45.96;102051.06;1399468;102;21117;-49
2021/07/08 10:30:08;;;;;;;11.22;5.92;;;;;;;31.86;46.13;102047.09;1412257;100;21149;-50
2021/07/08 10:32:34;;;;;;;8.98;6.22;;;;;;;31.92;45.59;102049.23;1399754;100;21155;-49
2021/07/08 10:35:01;;;;;;;12.10;6.72;;;;;;;31.96;44.50;102046.64;1404566;100;21656;-50
2021/07/08 10:37:33;;;;;;;9.93;5.70;;;;;;;32.04;45.49;102047.31;1414517;101;21164;-50
2021/07/08 10:40:00;;;;;;;7.15;5.75;;;;;;;32.11;45.39;102044.91;1436707;97;21136;-50
2021/07/08 10:42:44;;;;;;;7.80;5.92;;;;;;;32.16;45.04;102047.52;1490552;92;21646;-50
2021/07/08 10:45:38;;;;;;;7.55;6.72;;;;;;;32.21;45.33;102043.06;1514625;93;21143;-51
2021/07/08 10:48:19;;;;;;;18.35;7.40;;;;;;;32.26;45.81;102038.08;1567889;90;21613;-50
2021/07/08 10:50:50;;;;;;;13.05;9.00;;;;;;;32.28;45.43;102041.48;1624395;86;21081;-51
2021/07/08 10:53:42;;;;;;;14.33;7.90;;;;;;;32.32;45.89;102042.89;1651999;86;21087;-52
2021/07/08 10:56:13;;;;;;;12.13;8.83;;;;;;;32.34;45.91;102044.47;1673992;80;21019;-48
2021/07/08 10:58:56;;;;;;;13.30;8.53;;;;;;;32.35;44.88;102044.83;1691194;83;21032;-49
2021/07/08 11:01:30;;;;;;;9.13;7.53;;;;;;;32.35;45.31;102041.28;1686818;84;21586;-49
2021/07/08 11:03:59;;;;;;;10.95;7.12;;;;;;;32.34;45.01;102043.61;1669765;84;21081;-49
2021/07/08 11:06:36;;;;;;;12.50;7.60;;;;;;;32.34;45.69;102040.91;1674062;84;21553;-52
2021/07/08 11:09:18;;;;;;;11.57;7.45;;;;;;;32.33;45.66;102039.23;1666681;85;21002;-48
2021/07/08 11:11:52;;;;;;;8.08;7.37;;;;;;;32.34;46.37;102036.87;1669534;84;21487;-49
2021/07/08 11:14:26;;;;;;;10.78;7.75;;;;;;;32.33;45.65;102036.53;1683373;85;21099;-48
2021/07/08 11:17:12;;;;;;;12.40;8.80;;;;;;;32.31;45.51;102038.52;1679998;84;21120;-49
2021/07/08 11:19:45;;;;;;;9.50;7.72;;;;;;;32.33;46.08;102043.27;1681937;84;21086;-48
2021/07/08 11:22:16;;;;;;;8.45;7.65;;;;;;;32.35;45.79;102043.97;1670776;85;21078;-49
2021/07/08 11:24:52;;;;;;;8.63;7.72;;;;;;;32.38;45.51;102039.63;1638159;86;21533;-50
2021/07/08 11:27:33;;;;;;;12.35;8.58;;;;;;;32.40;45.74;102043.89;1681715;84;21258;-48
2021/07/08 11:30:17;;;;;;;8.13;7.37;;;;;;;32.42;45.75;102042.42;1657427;84;21064;-47
2021/07/08 11:32:47;;;;;;;12.07;7.67;;;;;;;32.45;45.04;102038.94;1641548;85;21170;-48
2021/07/08 11:35:20;;;;;;;8.58;6.80;;;;;;;32.49;44.75;102040.87;1634125;86;21061;-50